createdAt,value
2016-05-16T00:00:59.771Z,16.58
2016-05-16T00:01:59.821Z,16.58
2016-05-16T00:02:59.871Z,16.58
2016-05-16T00:03:59.920Z,16.6
2016-05-16T00:04:59.939Z,16.61
2016-05-16T00:06:00.034Z,16.53
2016-05-16T00:06:59.898Z,16.57
2016-05-16T00:08:00.103Z,16.58
2016-05-16T00:09:00.168Z,16.6
2016-05-16T00:10:00.217Z,16.53
2016-05-16T00:11:00.111Z,16.6
2016-05-16T00:12:00.191Z,16.64
2016-05-16T00:13:00.366Z,16.5
2016-05-16T00:14:00.261Z,16.58
2016-05-16T00:15:00.466Z,16.56
2016-05-16T00:16:00.375Z,16.58
2016-05-16T00:17:00.252Z,16.56
2016-05-16T00:18:00.614Z,16.51
2016-05-16T00:19:00.663Z,16.58
2016-05-16T00:20:00.885Z,16.53
2016-05-16T00:21:00.763Z,16.5
2016-05-16T00:22:00.813Z,16.53
2016-05-16T00:23:00.862Z,16.51
2016-05-16T00:24:00.912Z,16.46
2016-05-16T00:25:00.821Z,16.54
2016-05-16T00:26:00.855Z,16.49
2016-05-16T00:27:00.920Z,16.53
2016-05-16T00:28:01.110Z,16.51
2016-05-16T00:29:01.160Z,16.47
2016-05-16T00:30:01.209Z,16.56
2016-05-16T00:31:01.259Z,16.5
2016-05-16T00:32:01.136Z,16.51
2016-05-16T00:33:01.358Z,16.49
2016-05-16T00:34:01.439Z,16.54
2016-05-16T00:35:01.317Z,16.54
2016-05-16T00:36:01.506Z,16.57
2016-05-16T00:37:01.572Z,16.51
2016-05-16T00:38:01.606Z,16.43
2016-05-16T00:39:01.670Z,16.54
2016-05-16T00:40:01.720Z,16.47
2016-05-16T00:41:01.786Z,16.5
2016-05-16T00:42:01.820Z,16.46
2016-05-16T00:43:01.869Z,16.54
2016-05-16T00:44:01.903Z,16.51
2016-05-16T00:45:01.968Z,16.5
2016-05-16T00:46:01.721Z,16.41
2016-05-16T00:47:02.052Z,16.51
2016-05-16T00:48:02.102Z,16.41
2016-05-16T00:49:02.150Z,16.5
2016-05-16T00:50:02.544Z,16.53
2016-05-16T00:51:02.110Z,16.57
2016-05-16T00:52:02.315Z,16.47
2016-05-16T00:53:02.349Z,16.53
2016-05-16T00:54:02.430Z,16.51
2016-05-16T00:55:02.464Z,16.5
2016-05-16T00:56:02.498Z,16.6
2016-05-16T00:57:02.563Z,16.58
2016-05-16T00:58:02.613Z,16.5
2016-05-16T00:59:02.663Z,16.5
2016-05-16T01:00:02.695Z,16.5
2016-05-16T01:01:02.761Z,16.5
2016-05-16T01:02:02.810Z,16.5
2016-05-16T01:03:02.860Z,16.51
2016-05-16T01:04:02.910Z,16.57
2016-05-16T01:05:03.240Z,16.43
2016-05-16T01:06:02.868Z,16.5
2016-05-16T01:07:03.073Z,16.53
2016-05-16T01:08:03.109Z,16.43
2016-05-16T01:09:03.001Z,16.49
2016-05-16T01:10:03.223Z,16.47
2016-05-16T01:11:03.257Z,16.42
2016-05-16T01:12:03.291Z,16.43
2016-05-16T01:13:03.356Z,16.5
2016-05-16T01:14:03.406Z,16.46
2016-05-16T01:15:03.300Z,16.46
2016-05-16T01:16:03.505Z,16.43
2016-05-16T01:17:03.569Z,16.42
2016-05-16T01:18:03.619Z,16.42
2016-05-16T01:19:03.653Z,16.51
2016-05-16T01:20:04.016Z,16.35
2016-05-16T01:21:03.753Z,16.46
2016-05-16T01:22:03.802Z,16.39
2016-05-16T01:23:03.851Z,16.43
2016-05-16T01:24:03.902Z,16.35
2016-05-16T01:25:03.952Z,16.39
2016-05-16T01:26:04.000Z,16.49
2016-05-16T01:27:04.065Z,16.41
2016-05-16T01:28:04.116Z,16.39
2016-05-16T01:29:04.007Z,16.43
2016-05-16T01:30:04.199Z,16.46
2016-05-16T01:31:04.263Z,16.46
2016-05-16T01:32:04.313Z,16.41
2016-05-16T01:33:04.348Z,16.39
2016-05-16T01:34:04.413Z,16.38
2016-05-16T01:35:04.993Z,16.38
2016-05-16T01:36:04.480Z,16.35
2016-05-16T01:37:04.545Z,16.39
2016-05-16T01:38:04.612Z,16.35
2016-05-16T01:39:04.645Z,16.35
2016-05-16T01:40:04.694Z,16.39
2016-05-16T01:41:04.760Z,16.39
2016-05-16T01:42:04.793Z,16.38
2016-05-16T01:43:04.702Z,16.32
2016-05-16T01:44:04.909Z,16.41
2016-05-16T01:45:04.958Z,16.35
2016-05-16T01:46:05.007Z,16.39
2016-05-16T01:47:05.057Z,16.36
2016-05-16T01:48:05.091Z,16.39
2016-05-16T01:49:04.999Z,16.36
2016-05-16T01:50:05.394Z,16.33
2016-05-16T01:51:05.083Z,16.39
2016-05-16T01:52:05.163Z,16.35
2016-05-16T01:53:05.426Z,16.39
2016-05-16T01:54:05.500Z,16.38
2016-05-16T01:55:05.448Z,16.38
2016-05-16T01:56:05.680Z,16.39
2016-05-16T01:57:05.609Z,16.42
2016-05-16T01:58:05.829Z,16.32
2016-05-16T01:59:05.894Z,16.28
2016-05-16T02:00:05.989Z,16.33
2016-05-16T02:01:06.037Z,16.35
2016-05-16T02:02:06.079Z,16.29
2016-05-16T02:03:06.134Z,16.38
2016-05-16T02:04:06.189Z,16.38
2016-05-16T02:05:06.291Z,16.32
2016-05-16T02:06:06.299Z,16.29
2016-05-16T02:07:06.335Z,16.21
2016-05-16T02:08:06.247Z,16.29
2016-05-16T02:09:06.469Z,16.28
2016-05-16T02:10:06.506Z,16.29
2016-05-16T02:11:06.573Z,16.29
2016-05-16T02:12:06.624Z,16.26
2016-05-16T02:13:06.658Z,16.28
2016-05-16T02:14:06.708Z,16.29
2016-05-16T02:15:06.775Z,16.24
2016-05-16T02:16:06.809Z,16.29
2016-05-16T02:17:06.859Z,16.23
2016-05-16T02:18:06.751Z,16.29
2016-05-16T02:19:06.958Z,16.28
2016-05-16T02:20:06.726Z,16.24
2016-05-16T02:21:07.056Z,16.24
2016-05-16T02:22:07.107Z,16.26
2016-05-16T02:23:07.156Z,16.23
2016-05-16T02:24:07.205Z,16.23
2016-05-16T02:25:07.256Z,16.29
2016-05-16T02:26:07.320Z,16.29
2016-05-16T02:27:07.370Z,16.26
2016-05-16T02:28:07.403Z,16.32
2016-05-16T02:29:07.469Z,16.31
2016-05-16T02:30:07.519Z,16.29
2016-05-16T02:31:07.553Z,16.24
2016-05-16T02:32:07.649Z,16.32
2016-05-16T02:33:07.683Z,16.26
2016-05-16T02:34:07.747Z,16.28
2016-05-16T02:35:08.316Z,16.32
2016-05-16T02:36:07.832Z,16.26
2016-05-16T02:37:07.897Z,16.26
2016-05-16T02:38:07.946Z,16.31
2016-05-16T02:39:07.980Z,16.2
2016-05-16T02:40:08.046Z,16.29
2016-05-16T02:41:08.111Z,16.29
2016-05-16T02:42:07.988Z,16.32
2016-05-16T02:43:08.193Z,16.24
2016-05-16T02:44:08.243Z,16.28
2016-05-16T02:45:08.277Z,16.31
2016-05-16T02:46:08.343Z,16.24
2016-05-16T02:47:08.392Z,16.24
2016-05-16T02:48:08.429Z,16.2
2016-05-16T02:49:08.479Z,16.15
2016-05-16T02:50:09.012Z,16.2
2016-05-16T02:51:08.418Z,16.16
2016-05-16T02:52:08.642Z,16.12
2016-05-16T02:53:08.677Z,16.15
2016-05-16T02:54:08.726Z,16.17
2016-05-16T02:55:08.807Z,16.15
2016-05-16T02:56:08.841Z,16.17
2016-05-16T02:57:08.875Z,16.13
2016-05-16T02:58:08.940Z,16.15
2016-05-16T02:59:08.975Z,16.17
2016-05-16T03:00:09.039Z,16.16
2016-05-16T03:01:09.073Z,16.29
2016-05-16T03:02:09.139Z,16.26
2016-05-16T03:03:09.188Z,16.28
2016-05-16T03:04:09.253Z,16.28
2016-05-16T03:05:09.646Z,16.26
2016-05-16T03:06:09.180Z,16.23
2016-05-16T03:07:09.246Z,16.24
2016-05-16T03:08:09.436Z,16.26
2016-05-16T03:09:09.485Z,16.28
2016-05-16T03:10:09.535Z,16.23
2016-05-16T03:11:09.569Z,16.21
2016-05-16T03:12:09.619Z,16.24
2016-05-16T03:13:09.668Z,16.2
2016-05-16T03:14:09.593Z,16.26
2016-05-16T03:15:09.798Z,16.28
2016-05-16T03:16:09.660Z,16.23
2016-05-16T03:17:09.882Z,16.31
2016-05-16T03:18:09.776Z,16.28
2016-05-16T03:19:09.996Z,16.2
2016-05-16T03:20:10.046Z,16.28
2016-05-16T03:21:10.096Z,16.24
2016-05-16T03:22:10.114Z,16.2
2016-05-16T03:23:10.195Z,16.16
2016-05-16T03:24:10.229Z,16.17
2016-05-16T03:25:10.279Z,16.16
2016-05-16T03:26:10.172Z,16.17
2016-05-16T03:27:10.393Z,16.15
2016-05-16T03:28:10.427Z,16.17
2016-05-16T03:29:10.477Z,16.17
2016-05-16T03:30:10.542Z,16.15
2016-05-16T03:31:10.592Z,16.13
2016-05-16T03:32:10.625Z,16.15
2016-05-16T03:33:10.675Z,16.2
2016-05-16T03:34:10.741Z,16.2
2016-05-16T03:35:10.774Z,16.12
2016-05-16T03:36:10.824Z,16.16
2016-05-16T03:37:10.717Z,16.13
2016-05-16T03:38:10.922Z,16.12
2016-05-16T03:39:10.972Z,16.09
2016-05-16T03:40:11.022Z,16.05
2016-05-16T03:41:10.930Z,16.1
2016-05-16T03:42:11.121Z,16.12
2016-05-16T03:43:11.171Z,16.08
2016-05-16T03:44:11.221Z,16.02
2016-05-16T03:45:11.285Z,16.01
2016-05-16T03:46:11.319Z,16.09
2016-05-16T03:47:11.213Z,16.01
2016-05-16T03:48:11.434Z,15.98
2016-05-16T03:49:11.468Z,16.13
2016-05-16T03:50:11.596Z,16.04
2016-05-16T03:51:11.567Z,16
2016-05-16T03:52:11.304Z,16.09
2016-05-16T03:53:11.667Z,16.15
2016-05-16T03:54:11.715Z,16.13
2016-05-16T03:55:11.781Z,15.98
2016-05-16T03:56:11.815Z,15.95
2016-05-16T03:57:11.693Z,16.04
2016-05-16T03:58:11.914Z,16
2016-05-16T03:59:11.808Z,16.05
2016-05-16T04:00:11.997Z,16.04
2016-05-16T04:01:12.063Z,15.97
2016-05-16T04:02:12.112Z,15.95
2016-05-16T04:03:12.178Z,16
2016-05-16T04:04:12.227Z,15.95
2016-05-16T04:05:12.792Z,16.02
2016-05-16T04:06:12.155Z,16.08
2016-05-16T04:07:12.361Z,16.04
2016-05-16T04:08:12.269Z,15.97
2016-05-16T04:09:12.460Z,15.97
2016-05-16T04:10:12.508Z,16.04
2016-05-16T04:11:12.574Z,16.09
2016-05-16T04:12:12.608Z,16.02
2016-05-16T04:13:12.657Z,16.05
2016-05-16T04:14:12.723Z,16.15
2016-05-16T04:15:12.741Z,16.09
2016-05-16T04:16:12.822Z,16.02
2016-05-16T04:17:12.871Z,16.12
2016-05-16T04:18:12.905Z,16.12
2016-05-16T04:19:12.814Z,16.09
2016-05-16T04:20:12.926Z,16.05
2016-05-16T04:21:13.038Z,16.02
2016-05-16T04:22:13.120Z,16.04
2016-05-16T04:23:13.153Z,16.08
2016-05-16T04:24:13.203Z,16.04
2016-05-16T04:25:13.253Z,15.94
2016-05-16T04:26:13.301Z,15.97
2016-05-16T04:27:13.351Z,16.02
2016-05-16T04:28:13.401Z,16.02
2016-05-16T04:29:13.451Z,15.95
2016-05-16T04:30:13.500Z,15.97
2016-05-16T04:31:13.565Z,16.01
2016-05-16T04:32:13.458Z,15.97
2016-05-16T04:33:13.508Z,15.94
2016-05-16T04:34:13.714Z,15.91
2016-05-16T04:35:13.748Z,15.92
2016-05-16T04:36:13.641Z,15.95
2016-05-16T04:37:13.847Z,15.84
2016-05-16T04:38:13.913Z,15.84
2016-05-16T04:39:13.947Z,15.94
2016-05-16T04:40:13.996Z,15.84
2016-05-16T04:41:14.108Z,15.84
2016-05-16T04:42:13.955Z,15.94
2016-05-16T04:43:14.004Z,15.82
2016-05-16T04:44:14.194Z,15.84
2016-05-16T04:45:14.243Z,15.9
2016-05-16T04:46:14.309Z,15.83
2016-05-16T04:47:14.343Z,15.95
2016-05-16T04:48:14.393Z,15.84
2016-05-16T04:49:14.457Z,15.84
2016-05-16T04:50:14.741Z,15.91
2016-05-16T04:51:14.540Z,15.86
2016-05-16T04:52:14.607Z,15.94
2016-05-16T04:53:14.640Z,15.82
2016-05-16T04:54:14.706Z,15.86
2016-05-16T04:55:14.739Z,15.88
2016-05-16T04:56:14.804Z,15.91
2016-05-16T04:57:14.854Z,15.82
2016-05-16T04:58:14.887Z,15.86
2016-05-16T04:59:14.953Z,15.84
2016-05-16T05:00:15.003Z,15.84
2016-05-16T05:01:15.037Z,15.86
2016-05-16T05:02:14.930Z,15.88
2016-05-16T05:03:15.136Z,15.82
2016-05-16T05:04:15.200Z,15.86
2016-05-16T05:05:15.078Z,15.82
2016-05-16T05:06:15.144Z,15.83
2016-05-16T05:07:15.178Z,15.91
2016-05-16T05:08:15.399Z,15.86
2016-05-16T05:09:15.433Z,15.9
2016-05-16T05:10:15.483Z,15.8
2016-05-16T05:11:15.547Z,15.9
2016-05-16T05:12:15.597Z,15.9
2016-05-16T05:13:15.491Z,15.9
2016-05-16T05:14:15.697Z,15.83
2016-05-16T05:15:15.747Z,15.92
2016-05-16T05:16:15.796Z,15.94
2016-05-16T05:17:15.845Z,15.86
2016-05-16T05:18:15.895Z,15.8
2016-05-16T05:19:15.929Z,15.9
2016-05-16T05:20:16.104Z,15.82
2016-05-16T05:21:16.028Z,15.92
2016-05-16T05:22:15.921Z,15.84
2016-05-16T05:23:16.126Z,15.79
2016-05-16T05:24:16.193Z,15.8
2016-05-16T05:25:16.242Z,15.88
2016-05-16T05:26:16.135Z,15.83
2016-05-16T05:27:16.169Z,15.88
2016-05-16T05:28:16.390Z,15.88
2016-05-16T05:29:16.440Z,15.83
2016-05-16T05:30:16.473Z,15.9
2016-05-16T05:31:16.539Z,15.82
2016-05-16T05:32:16.573Z,15.88
2016-05-16T05:33:16.670Z,15.9
2016-05-16T05:34:16.689Z,15.9
2016-05-16T05:35:16.816Z,15.82
2016-05-16T05:36:16.786Z,15.9
2016-05-16T05:37:16.837Z,15.86
2016-05-16T05:38:16.886Z,15.91
2016-05-16T05:39:16.780Z,15.88
2016-05-16T05:40:16.985Z,15.88
2016-05-16T05:41:17.019Z,15.88
2016-05-16T05:42:17.099Z,15.86
2016-05-16T05:43:17.119Z,15.86
2016-05-16T05:44:17.152Z,15.9
2016-05-16T05:45:17.218Z,15.95
2016-05-16T05:46:17.266Z,15.83
2016-05-16T05:47:17.302Z,15.88
2016-05-16T05:48:17.350Z,15.82
2016-05-16T05:49:17.260Z,15.84
2016-05-16T05:50:17.152Z,15.83
2016-05-16T05:51:17.374Z,15.98
2016-05-16T05:52:17.579Z,15.9
2016-05-16T05:53:17.615Z,15.86
2016-05-16T05:54:17.663Z,15.84
2016-05-16T05:55:17.713Z,15.94
2016-05-16T05:56:17.748Z,15.97
2016-05-16T05:57:17.812Z,15.95
2016-05-16T05:58:17.862Z,15.94
2016-05-16T05:59:17.755Z,15.98
2016-05-16T06:00:17.945Z,15.97
2016-05-16T06:01:18.026Z,15.92
2016-05-16T06:02:17.748Z,15.97
2016-05-16T06:03:18.109Z,16
2016-05-16T06:04:18.159Z,15.97
2016-05-16T06:05:18.193Z,15.95
2016-05-16T06:06:18.086Z,15.91
2016-05-16T06:07:18.152Z,15.88
2016-05-16T06:08:18.342Z,15.97
2016-05-16T06:09:18.407Z,15.86
2016-05-16T06:10:18.300Z,15.82
2016-05-16T06:11:18.490Z,15.88
2016-05-16T06:12:18.400Z,15.9
2016-05-16T06:13:18.605Z,15.9
2016-05-16T06:14:18.499Z,15.88
2016-05-16T06:15:18.704Z,15.88
2016-05-16T06:16:18.613Z,15.83
2016-05-16T06:17:18.803Z,15.86
2016-05-16T06:18:18.556Z,15.8
2016-05-16T06:19:18.903Z,15.86
2016-05-16T06:20:18.843Z,15.91
2016-05-16T06:21:18.986Z,15.88
2016-05-16T06:22:18.895Z,15.84
2016-05-16T06:23:19.085Z,15.88
2016-05-16T06:24:19.166Z,15.86
2016-05-16T06:25:19.200Z,15.86
2016-05-16T06:26:19.249Z,15.88
2016-05-16T06:27:19.315Z,15.9
2016-05-16T06:28:19.348Z,15.88
2016-05-16T06:29:19.398Z,15.8
2016-05-16T06:30:19.464Z,15.82
2016-05-16T06:31:19.497Z,15.84
2016-05-16T06:32:19.532Z,15.73
2016-05-16T06:33:19.596Z,15.82
2016-05-16T06:34:19.646Z,15.75
2016-05-16T06:35:19.540Z,15.82
2016-05-16T06:36:19.730Z,15.83
2016-05-16T06:37:19.795Z,15.8
2016-05-16T06:38:19.844Z,15.82
2016-05-16T06:39:19.894Z,15.82
2016-05-16T06:40:19.944Z,15.84
2016-05-16T06:41:19.994Z,15.79
2016-05-16T06:42:19.871Z,15.84
2016-05-16T06:43:20.092Z,15.77
2016-05-16T06:44:20.157Z,15.86
2016-05-16T06:45:20.175Z,15.84
2016-05-16T06:46:20.241Z,15.86
2016-05-16T06:47:20.275Z,15.86
2016-05-16T06:48:20.325Z,15.86
2016-05-16T06:49:20.390Z,15.76
2016-05-16T06:50:20.486Z,15.83
2016-05-16T06:51:20.489Z,15.83
2016-05-16T06:52:20.523Z,15.77
2016-05-16T06:53:20.588Z,15.77
2016-05-16T06:54:20.637Z,15.7
2016-05-16T06:55:20.687Z,15.79
2016-05-16T06:56:20.721Z,15.79
2016-05-16T06:57:20.771Z,15.76
2016-05-16T06:58:20.835Z,15.8
2016-05-16T06:59:21.088Z,15.76
2016-05-16T07:00:20.934Z,15.76
2016-05-16T07:01:20.859Z,15.73
2016-05-16T07:02:21.096Z,15.75
2016-05-16T07:03:21.083Z,15.7
2016-05-16T07:04:21.165Z,15.75
2016-05-16T07:05:21.354Z,15.68
2016-05-16T07:06:21.075Z,15.73
2016-05-16T07:07:21.282Z,15.7
2016-05-16T07:08:21.331Z,15.68
2016-05-16T07:09:21.365Z,15.72
2016-05-16T07:10:21.446Z,15.72
2016-05-16T07:11:21.480Z,15.73
2016-05-16T07:12:21.514Z,15.7
2016-05-16T07:13:21.580Z,15.72
2016-05-16T07:14:21.628Z,15.67
2016-05-16T07:15:21.678Z,15.72
2016-05-16T07:16:21.713Z,15.67
2016-05-16T07:17:21.777Z,15.72
2016-05-16T07:18:21.827Z,15.73
2016-05-16T07:19:21.720Z,15.73
2016-05-16T07:20:22.269Z,15.75
2016-05-16T07:21:21.976Z,15.68
2016-05-16T07:22:22.025Z,15.75
2016-05-16T07:23:22.060Z,15.73
2016-05-16T07:24:22.124Z,15.75
2016-05-16T07:25:22.174Z,15.75
2016-05-16T07:26:22.207Z,15.72
2016-05-16T07:27:22.117Z,15.7
2016-05-16T07:28:22.338Z,15.7
2016-05-16T07:29:22.372Z,15.68
2016-05-16T07:30:22.422Z,15.75
2016-05-16T07:31:22.487Z,15.77
2016-05-16T07:32:22.520Z,15.76
2016-05-16T07:33:22.554Z,15.8
2016-05-16T07:34:22.604Z,15.8
2016-05-16T07:35:22.670Z,15.76
2016-05-16T07:36:22.719Z,15.72
2016-05-16T07:37:22.597Z,15.73
2016-05-16T07:38:22.818Z,15.7
2016-05-16T07:39:22.853Z,15.68
2016-05-16T07:40:22.918Z,15.72
2016-05-16T07:41:22.982Z,15.75
2016-05-16T07:42:23.033Z,15.76
2016-05-16T07:43:23.050Z,15.72
2016-05-16T07:44:22.944Z,15.7
2016-05-16T07:45:23.165Z,15.67
2016-05-16T07:46:23.199Z,15.75
2016-05-16T07:47:23.248Z,15.65
2016-05-16T07:48:23.173Z,15.65
2016-05-16T07:49:23.364Z,15.7
2016-05-16T07:50:23.788Z,15.68
2016-05-16T07:51:23.307Z,15.73
2016-05-16T07:52:23.371Z,15.7
2016-05-16T07:53:23.577Z,15.72
2016-05-16T07:54:23.596Z,15.73
2016-05-16T07:55:23.660Z,15.72
2016-05-16T07:56:23.710Z,15.72
2016-05-16T07:57:23.743Z,15.72
2016-05-16T07:58:23.810Z,15.73
2016-05-16T07:59:23.844Z,15.72
2016-05-16T08:00:23.893Z,15.62
2016-05-16T08:01:23.787Z,15.73
2016-05-16T08:02:23.851Z,15.77
2016-05-16T08:03:24.042Z,15.67
2016-05-16T08:04:24.091Z,15.7
2016-05-16T08:05:24.172Z,15.73
2016-05-16T08:06:24.206Z,15.83
2016-05-16T08:07:24.256Z,15.82
2016-05-16T08:08:24.289Z,15.79
2016-05-16T08:09:24.355Z,15.82
2016-05-16T08:10:24.404Z,15.82
2016-05-16T08:11:24.281Z,15.76
2016-05-16T08:12:24.488Z,15.82
2016-05-16T08:13:24.552Z,15.79
2016-05-16T08:14:24.603Z,15.72
2016-05-16T08:15:24.637Z,15.76
2016-05-16T08:16:24.686Z,15.73
2016-05-16T08:17:24.752Z,15.83
2016-05-16T08:18:24.644Z,15.79
2016-05-16T08:19:35.975Z,15.82
2016-05-16T08:20:25.181Z,15.86
2016-05-16T08:21:25.043Z,15.86
2016-05-16T08:22:24.983Z,15.76
2016-05-16T08:23:25.033Z,15.76
2016-05-16T08:24:24.942Z,15.79
2016-05-16T08:25:25.148Z,15.84
2016-05-16T08:26:25.182Z,15.76
2016-05-16T08:27:25.074Z,15.72
2016-05-16T08:28:25.296Z,15.67
2016-05-16T08:29:25.329Z,15.68
2016-05-16T08:30:25.379Z,15.72
2016-05-16T08:31:25.446Z,15.7
2016-05-16T08:32:25.495Z,15.68
2016-05-16T08:33:25.388Z,15.72
2016-05-16T08:34:25.422Z,15.75
2016-05-16T08:35:25.815Z,15.7
2016-05-16T08:36:25.693Z,15.72
2016-05-16T08:37:25.742Z,15.65
2016-05-16T08:38:25.667Z,15.7
2016-05-16T08:39:25.842Z,15.7
2016-05-16T08:40:25.875Z,15.65
2016-05-16T08:41:25.769Z,15.75
2016-05-16T08:42:25.990Z,15.7
2016-05-16T08:43:26.024Z,15.7
2016-05-16T08:44:26.090Z,15.76
2016-05-16T08:45:25.982Z,15.67
2016-05-16T08:46:26.172Z,15.73
2016-05-16T08:47:26.239Z,15.7
2016-05-16T08:48:26.288Z,15.76
2016-05-16T08:49:26.338Z,15.7
2016-05-16T08:50:26.386Z,15.73
2016-05-16T08:51:26.436Z,15.76
2016-05-16T08:52:26.330Z,15.75
2016-05-16T08:53:26.535Z,15.82
2016-05-16T08:54:26.601Z,15.75
2016-05-16T08:55:26.604Z,15.7
2016-05-16T08:56:26.513Z,15.82
2016-05-16T08:57:26.718Z,15.82
2016-05-16T08:58:26.643Z,15.83
2016-05-16T08:59:26.832Z,15.86
2016-05-16T09:00:26.695Z,15.9
2016-05-16T09:01:26.931Z,15.88
2016-05-16T09:02:26.981Z,15.83
2016-05-16T09:03:27.016Z,15.86
2016-05-16T09:04:27.049Z,15.88
2016-05-16T09:05:27.131Z,15.86
2016-05-16T09:06:27.008Z,15.84
2016-05-16T09:07:27.198Z,15.9
2016-05-16T09:08:27.295Z,15.91
2016-05-16T09:09:27.312Z,15.86
2016-05-16T09:10:27.362Z,15.92
2016-05-16T09:11:27.256Z,15.86
2016-05-16T09:12:27.321Z,15.95
2016-05-16T09:13:27.527Z,15.94
2016-05-16T09:14:27.561Z,15.83
2016-05-16T09:15:27.453Z,15.84
2016-05-16T09:16:27.691Z,15.84
2016-05-16T09:17:27.693Z,15.92
2016-05-16T09:18:27.774Z,15.94
2016-05-16T09:19:27.809Z,15.86
2016-05-16T09:20:28.374Z,15.83
2016-05-16T09:21:27.908Z,15.92
2016-05-16T09:22:27.832Z,15.83
2016-05-16T09:23:28.022Z,15.95
2016-05-16T09:24:28.057Z,15.95
2016-05-16T09:25:27.810Z,15.97
2016-05-16T09:26:28.171Z,15.95
2016-05-16T09:27:28.205Z,15.97
2016-05-16T09:28:28.271Z,16
2016-05-16T09:29:28.304Z,15.97
2016-05-16T09:30:28.369Z,15.95
2016-05-16T09:31:28.403Z,15.91
2016-05-16T09:32:28.312Z,15.95
2016-05-16T09:33:28.502Z,15.95
2016-05-16T09:34:28.568Z,15.98
2016-05-16T09:35:28.462Z,15.83
2016-05-16T09:36:28.682Z,15.92
2016-05-16T09:37:28.560Z,15.95
2016-05-16T09:38:28.765Z,15.95
2016-05-16T09:39:28.659Z,15.92
2016-05-16T09:40:28.865Z,15.92
2016-05-16T09:41:28.898Z,15.95
2016-05-16T09:42:28.792Z,15.91
2016-05-16T09:43:28.998Z,15.95
2016-05-16T09:44:28.892Z,15.91
2016-05-16T09:45:29.097Z,15.84
2016-05-16T09:46:29.162Z,15.92
2016-05-16T09:47:29.196Z,15.9
2016-05-16T09:48:29.089Z,15.86
2016-05-16T09:49:29.295Z,15.88
2016-05-16T09:50:29.766Z,15.9
2016-05-16T09:51:29.255Z,15.84
2016-05-16T09:52:29.303Z,15.83
2016-05-16T09:53:29.478Z,15.86
2016-05-16T09:54:29.558Z,15.88
2016-05-16T09:55:29.640Z,15.83
2016-05-16T09:56:29.658Z,15.82
2016-05-16T09:57:29.396Z,15.83
2016-05-16T09:58:29.758Z,15.88
2016-05-16T09:59:29.791Z,15.82
2016-05-16T10:00:29.872Z,15.88
2016-05-16T10:01:29.890Z,15.82
2016-05-16T10:02:29.955Z,15.86
2016-05-16T10:03:29.848Z,15.94
2016-05-16T10:04:30.054Z,15.94
2016-05-16T10:05:30.385Z,15.86
2016-05-16T10:06:30.154Z,15.84
2016-05-16T10:07:30.188Z,15.86
2016-05-16T10:08:30.096Z,15.95
2016-05-16T10:09:30.303Z,15.92
2016-05-16T10:10:30.351Z,15.98
2016-05-16T10:11:30.386Z,15.98
2016-05-16T10:12:30.451Z,15.98
2016-05-16T10:13:30.845Z,15.97
2016-05-16T10:14:30.395Z,15.9
2016-05-16T10:15:30.584Z,15.94
2016-05-16T10:16:30.634Z,16
2016-05-16T10:17:30.699Z,15.95
2016-05-16T10:18:30.733Z,15.94
2016-05-16T10:19:30.766Z,15.91
2016-05-16T10:20:30.864Z,15.97
2016-05-16T10:21:30.881Z,15.97
2016-05-16T10:22:30.931Z,16.01
2016-05-16T10:23:30.997Z,16
2016-05-16T10:24:30.889Z,15.91
2016-05-16T10:25:31.080Z,16.05
2016-05-16T10:26:31.144Z,16.05
2016-05-16T10:27:31.194Z,15.91
2016-05-16T10:28:31.260Z,16.01
2016-05-16T10:29:31.278Z,15.98
2016-05-16T10:30:31.328Z,15.98
2016-05-16T10:31:31.408Z,15.98
2016-05-16T10:32:31.427Z,15.97
2016-05-16T10:33:31.476Z,16
2016-05-16T10:34:31.541Z,15.95
2016-05-16T10:35:31.950Z,15.91
2016-05-16T10:36:31.641Z,15.98
2016-05-16T10:37:31.690Z,15.97
2016-05-16T10:38:31.583Z,15.98
2016-05-16T10:39:31.790Z,15.9
2016-05-16T10:40:31.840Z,15.98
2016-05-16T10:41:31.889Z,15.97
2016-05-16T10:42:31.938Z,15.92
2016-05-16T10:43:31.831Z,15.95
2016-05-16T10:44:32.037Z,16.01
2016-05-16T10:45:32.117Z,15.97
2016-05-16T10:46:32.136Z,15.95
2016-05-16T10:47:32.186Z,15.83
2016-05-16T10:48:32.236Z,15.86
2016-05-16T10:49:32.144Z,15.98
2016-05-16T10:50:32.194Z,15.86
2016-05-16T10:51:32.383Z,15.92
2016-05-16T10:52:32.419Z,15.88
2016-05-16T10:53:32.483Z,15.84
2016-05-16T10:54:32.377Z,15.82
2016-05-16T10:55:32.411Z,15.84
2016-05-16T10:56:32.616Z,15.91
2016-05-16T10:57:32.737Z,15.86
2016-05-16T10:58:32.647Z,15.84
2016-05-16T10:59:32.899Z,15.86
2016-05-16T11:00:33.011Z,15.84
2016-05-16T11:01:33.107Z,15.98
2016-05-16T11:02:33.162Z,15.86
2016-05-16T11:03:33.245Z,15.86
2016-05-16T11:04:33.326Z,15.88
2016-05-16T11:05:33.065Z,15.84
2016-05-16T11:06:34.991Z,15.86
2016-05-16T11:07:33.328Z,15.9
2016-05-16T11:08:33.556Z,15.88
2016-05-16T11:09:33.627Z,15.9
2016-05-16T11:10:33.511Z,15.95
2016-05-16T11:11:33.551Z,15.86
2016-05-16T11:12:33.775Z,15.94
2016-05-16T11:13:33.826Z,15.95
2016-05-16T11:14:33.878Z,15.88
2016-05-16T11:15:33.945Z,15.86
2016-05-16T11:16:33.982Z,15.82
2016-05-16T11:17:33.860Z,15.84
2016-05-16T11:18:34.066Z,15.82
2016-05-16T11:19:33.978Z,15.9
2016-05-16T11:20:34.183Z,15.86
2016-05-16T11:21:34.062Z,15.84
2016-05-16T11:22:34.269Z,15.83
2016-05-16T11:23:34.333Z,15.88
2016-05-16T11:24:34.619Z,15.84
2016-05-16T11:25:34.433Z,15.84
2016-05-16T11:26:34.483Z,15.88
2016-05-16T11:27:34.548Z,15.86
2016-05-16T11:28:34.442Z,15.9
2016-05-16T11:29:34.632Z,15.86
2016-05-16T11:30:34.698Z,15.91
2016-05-16T11:31:34.716Z,15.88
2016-05-16T11:32:34.781Z,15.9
2016-05-16T11:33:34.847Z,15.82
2016-05-16T11:34:34.880Z,15.88
2016-05-16T11:35:35.149Z,15.84
2016-05-16T11:36:34.979Z,15.82
2016-05-16T11:37:35.029Z,15.84
2016-05-16T11:38:34.922Z,15.84
2016-05-16T11:39:35.128Z,15.9
2016-05-16T11:40:35.162Z,15.88
2016-05-16T11:41:35.227Z,15.91
2016-05-16T11:42:35.292Z,15.91
2016-05-16T11:43:35.310Z,15.86
2016-05-16T11:44:35.360Z,15.9
2016-05-16T11:45:35.425Z,15.79
2016-05-16T11:46:35.475Z,15.86
2016-05-16T11:47:35.509Z,15.88
2016-05-16T11:48:35.559Z,15.9
2016-05-16T11:49:35.640Z,15.9
2016-05-16T11:50:35.548Z,15.86
2016-05-16T11:51:35.926Z,15.9
2016-05-16T11:52:35.787Z,15.92
2016-05-16T11:53:35.822Z,15.84
2016-05-16T11:54:35.871Z,15.8
2016-05-16T11:55:35.921Z,15.91
2016-05-16T11:56:35.814Z,15.84
2016-05-16T11:57:36.020Z,15.84
2016-05-16T11:58:36.069Z,15.84
2016-05-16T11:59:36.104Z,15.88
2016-05-16T12:00:36.137Z,15.9
2016-05-16T12:01:36.062Z,15.86
2016-05-16T12:02:36.253Z,15.86
2016-05-16T12:03:36.145Z,15.9
2016-05-16T12:04:36.367Z,15.88
2016-05-16T12:05:36.619Z,15.9
2016-05-16T12:06:36.450Z,15.82
2016-05-16T12:07:36.531Z,15.84
2016-05-16T12:08:36.566Z,15.92
2016-05-16T12:09:36.615Z,15.92
2016-05-16T12:10:36.508Z,15.83
2016-05-16T12:11:36.714Z,15.86
2016-05-16T12:12:36.779Z,15.83
2016-05-16T12:13:36.797Z,15.88
2016-05-16T12:14:36.707Z,15.9
2016-05-16T12:15:36.757Z,15.86
2016-05-16T12:16:36.649Z,15.9
2016-05-16T12:17:36.996Z,15.9
2016-05-16T12:18:37.060Z,15.86
2016-05-16T12:19:37.079Z,15.88
2016-05-16T12:20:37.347Z,15.84
2016-05-16T12:21:37.209Z,15.86
2016-05-16T12:22:37.260Z,15.86
2016-05-16T12:23:37.309Z,15.91
2016-05-16T12:24:37.343Z,15.84
2016-05-16T12:25:37.267Z,15.9
2016-05-16T12:26:37.473Z,15.9
2016-05-16T12:27:37.507Z,15.9
2016-05-16T12:28:37.541Z,15.91
2016-05-16T12:29:37.622Z,15.91
2016-05-16T12:30:37.500Z,15.86
2016-05-16T12:31:37.721Z,15.88
2016-05-16T12:32:37.755Z,15.91
2016-05-16T12:33:37.508Z,15.86
2016-05-16T12:34:37.697Z,15.88
2016-05-16T12:35:38.185Z,15.86
2016-05-16T12:36:37.952Z,15.88
2016-05-16T12:37:38.003Z,15.95
2016-05-16T12:38:38.053Z,15.9
2016-05-16T12:39:38.086Z,15.88
2016-05-16T12:40:38.152Z,15.86
2016-05-16T12:41:38.201Z,15.88
2016-05-16T12:42:38.250Z,15.86
2016-05-16T12:43:38.284Z,15.88
2016-05-16T12:44:38.193Z,15.84
2016-05-16T12:45:38.399Z,15.84
2016-05-16T12:46:38.449Z,15.88
2016-05-16T12:47:38.513Z,15.88
2016-05-16T12:48:38.532Z,15.9
2016-05-16T12:49:38.582Z,15.9
2016-05-16T12:50:38.334Z,15.8
2016-05-16T12:51:38.697Z,15.8
2016-05-16T12:52:38.730Z,15.84
2016-05-16T12:53:38.796Z,15.84
2016-05-16T12:54:38.862Z,15.83
2016-05-16T12:55:38.879Z,15.84
2016-05-16T12:56:38.944Z,15.84
2016-05-16T12:57:38.994Z,15.82